Time;durP1;ratioP1;P1;durP2;ratioP2;P2;SDS_P1;SDS_P2;PMS_P1;PMS_P2;Temp;Humidity;BMP_temperature;BMP_pressure;BME280_temperature;BME280_humidity;BME280_pressure;Samples;Min_cycle;Max_cycle;Signal;HPM_P1;HPM_P2
2023/09/21 00:00:45;;;;;;;4.83;1.80;;;;;;;17.43;100.00;99580.91;4999593;28;20034;-76
2023/09/21 00:03:11;;;;;;;2.90;1.93;;;;;;;17.39;100.00;99566.25;5014039;28;20467;-76
2023/09/21 00:05:37;;;;;;;11.88;2.22;;;;;;;17.40;100.00;99553.59;5014600;28;20104;-76
2023/09/21 00:08:04;;;;;;;2.78;1.95;;;;;;;17.34;100.00;99543.75;5015764;28;20144;-76
2023/09/21 00:10:31;;;;;;;3.40;2.10;;;;;;;17.42;100.00;99551.47;5014128;28;20140;-76
2023/09/21 00:13:00;;;;;;;3.42;2.17;;;;;;;17.39;100.00;99550.06;5017882;28;20376;-76
2023/09/21 00:15:26;;;;;;;3.17;1.60;;;;;;;17.44;100.00;99525.91;5014595;28;20044;-76
2023/09/21 00:17:51;;;;;;;3.28;1.77;;;;;;;17.42;100.00;99528.03;5018195;28;20044;-75
2023/09/21 00:20:35;;;;;;;5.63;2.77;;;;;;;17.37;100.00;99505.50;5014494;28;20385;-75
2023/09/21 00:23:06;;;;;;;5.10;2.60;;;;;;;17.43;100.00;99501.84;5022645;28;20459;-75
2023/09/21 00:25:32;;;;;;;5.15;2.03;;;;;;;17.33;100.00;99485.47;5015145;28;20041;-75
2023/09/21 00:27:57;;;;;;;5.32;2.35;;;;;;;17.29;100.00;99515.59;5017747;28;20535;-75
2023/09/21 00:30:23;;;;;;;3.75;2.13;;;;;;;17.31;100.00;99507.28;4998623;28;20125;-75
2023/09/21 00:32:48;;;;;;;2.83;1.90;;;;;;;17.32;100.00;99473.84;5015541;28;20474;-75
2023/09/21 00:35:15;;;;;;;2.47;1.65;;;;;;;17.34;100.00;99489.78;5014223;28;20251;-75
2023/09/21 00:37:41;;;;;;;2.78;1.70;;;;;;;17.36;100.00;99490.38;4999420;28;20406;-75
2023/09/21 00:40:19;;;;;;;6.70;3.00;;;;;;;17.35;100.00;99451.81;5015298;28;20043;-74
2023/09/21 00:42:45;;;;;;;3.50;1.92;;;;;;;17.38;100.00;99462.09;4999955;28;20037;-75
2023/09/21 00:45:10;;;;;;;;;;;;;;;17.46;100.00;99459.03;5014748;28;20025;-77
2023/09/21 00:47:42;;;;;;;;;;;;;;;17.42;100.00;99440.84;5015891;28;19913;-76
2023/09/21 00:50:11;;;;;;;5.65;1.75;;;;;;;17.43;100.00;99431.72;5016165;28;19960;-76
2023/09/21 00:52:44;;;;;;;6.55;2.13;;;;;;;17.41;100.00;99450.00;5015419;28;20041;-76
2023/09/21 00:55:13;;;;;;;5.18;2.17;;;;;;;17.40;100.00;99449.19;4997811;28;20033;-75
2023/09/21 00:57:40;;;;;;;4.05;1.70;;;;;;;17.33;100.00;99470.09;5002635;28;20025;-77
2023/09/21 01:00:13;;;;;;;2.17;1.75;;;;;;;17.38;100.00;99467.50;5014805;28;20056;-76
2023/09/21 01:02:42;;;;;;;3.22;2.08;;;;;;;17.24;100.00;99456.16;5015987;28;20042;-76
2023/09/21 01:05:09;;;;;;;4.60;1.95;;;;;;;17.21;100.00;99463.91;5015603;28;20392;-76
2023/09/21 01:07:36;;;;;;;2.72;1.80;;;;;;;17.07;100.00;99483.03;4997105;28;20036;-74
2023/09/21 01:10:11;;;;;;;5.60;2.25;;;;;;;17.24;100.00;99515.50;5015181;28;20041;-76
2023/09/21 01:12:38;;;;;;;4.65;2.38;;;;;;;17.17;100.00;99487.81;4997945;28;20042;-76
2023/09/21 01:15:11;;;;;;;3.72;2.30;;;;;;;17.21;100.00;99505.19;5015649;28;20388;-76
2023/09/21 01:17:46;;;;;;;4.50;2.10;;;;;;;17.18;100.00;99521.81;5016682;28;20033;-76
2023/09/21 01:20:22;;;;;;;5.95;2.50;;;;;;;17.15;100.00;99500.72;5013720;28;20048;-76
2023/09/21 01:23:11;;;;;;;;;;;;;;;17.10;100.00;99514.09;4998998;28;20038;-76
2023/09/21 01:25:41;;;;;;;4.25;1.92;;;;;;;16.92;100.00;99519.59;5007434;28;19914;-75
2023/09/21 01:28:11;;;;;;;4.03;1.80;;;;;;;16.85;100.00;99528.59;5015186;28;20048;-76
2023/09/21 01:30:38;;;;;;;5.15;1.90;;;;;;;16.93;100.00;99561.66;4995077;28;20034;-76
2023/09/21 01:33:09;;;;;;;4.78;1.90;;;;;;;16.94;100.00;99560.63;5015327;28;20017;-76
2023/09/21 01:35:36;;;;;;;5.88;2.22;;;;;;;16.91;100.00;99548.44;4996012;28;20046;-76
2023/09/21 01:38:03;;;;;;;4.10;1.80;;;;;;;16.96;100.00;99558.53;5015406;28;20039;-75
2023/09/21 01:40:29;;;;;;;3.40;1.80;;;;;;;16.95;100.00;99532.59;4995926;28;20022;-76
2023/09/21 01:42:55;;;;;;;3.70;2.17;;;;;;;16.81;100.00;99505.91;5017804;28;20030;-74
2023/09/21 01:45:20;;;;;;;7.03;2.77;;;;;;;16.88;100.00;99544.34;5012573;28;20400;-76
2023/09/21 01:47:46;;;;;;;8.03;2.10;;;;;;;16.76;100.00;99539.94;4997465;28;20389;-75
2023/09/21 01:50:12;;;;;;;5.22;1.85;;;;;;;16.66;100.00;99529.72;5012754;28;20778;-75
2023/09/21 01:52:38;;;;;;;4.00;1.98;;;;;;;16.74;100.00;99537.50;5014221;28;20084;-76
2023/09/21 01:55:10;;;;;;;4.30;2.08;;;;;;;16.78;100.00;99544.03;5014595;28;20021;-74
2023/09/21 01:57:37;;;;;;;6.30;2.00;;;;;;;16.54;100.00;99536.97;5014528;28;20125;-76
2023/09/21 02:00:11;;;;;;;3.22;1.90;;;;;;;16.64;100.00;99546.13;5022050;28;20075;-76
2023/09/21 02:02:38;;;;;;;6.00;1.73;;;;;;;16.70;100.00;99524.72;5025386;28;20041;-76
2023/09/21 02:05:04;;;;;;;6.53;2.05;;;;;;;16.62;100.00;99517.78;5011059;28;20026;-76
2023/09/21 02:07:29;;;;;;;;;;;;;;;16.64;100.00;99512.97;5022291;28;20029;-75
2023/09/21 02:09:55;;;;;;;;;;;;;;;16.73;100.00;99508.06;5023919;28;19921;-74
2023/09/21 02:12:23;;;;;;;3.55;2.13;;;;;;;16.63;100.00;99479.81;5024020;28;19909;-76
2023/09/21 02:14:49;;;;;;;4.60;2.33;;;;;;;16.64;100.00;99472.56;5023126;28;20047;-76
2023/09/21 02:17:14;;;;;;;5.97;2.00;;;;;;;16.66;100.00;99468.56;5014185;28;20029;-75
2023/09/21 02:19:41;;;;;;;3.53;1.80;;;;;;;16.64;100.00;99486.84;5025212;28;20079;-74
2023/09/21 02:22:07;;;;;;;;;;;;;;;16.58;100.00;99457.34;5014660;28;20029;-75
2023/09/21 02:24:33;;;;;;;2.83;1.70;;;;;;;16.59;100.00;99469.75;5019849;28;19913;-76
2023/09/21 02:26:58;;;;;;;9.03;2.33;;;;;;;16.59;100.00;99467.06;5013754;28;20019;-75
2023/09/21 02:29:25;;;;;;;3.08;2.20;;;;;;;16.42;100.00;99486.59;5025017;28;20040;-76
2023/09/21 02:31:50;;;;;;;7.60;2.10;;;;;;;16.45;100.00;99517.63;5023576;28;20049;-75
2023/09/21 02:34:17;;;;;;;4.75;2.28;;;;;;;16.37;100.00;99491.84;5013894;28;20453;-76
2023/09/21 02:36:45;;;;;;;4.45;2.03;;;;;;;16.45;100.00;99477.22;5024201;28;20499;-77
2023/09/21 02:39:10;;;;;;;5.45;2.00;;;;;;;16.42;100.00;99462.34;5010576;28;20055;-76
2023/09/21 02:41:36;;;;;;;5.57;2.22;;;;;;;16.29;100.00;99453.66;5016099;28;20488;-75
2023/09/21 02:44:01;;;;;;;3.13;1.90;;;;;;;16.27;100.00;99488.88;5021176;28;20417;-75
2023/09/21 02:46:28;;;;;;;7.93;2.67;;;;;;;16.24;100.00;99489.34;5023424;28;20586;-75
2023/09/21 02:48:53;;;;;;;5.00;2.20;;;;;;;16.18;100.00;99490.28;5023173;28;20116;-75
2023/09/21 02:51:19;;;;;;;6.43;2.13;;;;;;;16.24;100.00;99474.00;5013786;28;20140;-76
2023/09/21 02:53:46;;;;;;;4.70;2.50;;;;;;;16.30;100.00;99482.25;5023288;28;20044;-76
2023/09/21 02:56:13;;;;;;;8.38;2.60;;;;;;;16.13;100.00;99450.59;5013213;28;20034;-75
2023/09/21 02:58:40;;;;;;;4.68;2.67;;;;;;;16.15;100.00;99486.16;5023035;28;20038;-76
2023/09/21 03:01:06;;;;;;;4.78;2.47;;;;;;;16.18;100.00;99507.25;5013411;28;20040;-75
2023/09/21 03:03:33;;;;;;;4.40;2.10;;;;;;;16.15;100.00;99470.00;5022684;28;20082;-75
2023/09/21 03:05:59;;;;;;;7.50;2.38;;;;;;;16.19;100.00;99465.00;5024302;28;20497;-76
2023/09/21 03:08:25;;;;;;;5.33;1.90;;;;;;;16.27;100.00;99469.22;5019959;28;20120;-76
2023/09/21 03:10:54;;;;;;;4.15;1.95;;;;;;;16.16;100.00;99444.75;5019238;28;20079;-75
2023/09/21 03:13:21;;;;;;;;;;;;;;;16.13;100.00;99449.75;5005660;28;20033;-76
2023/09/21 03:15:50;;;;;;;3.67;1.73;;;;;;;16.20;100.00;99439.69;5024634;28;20004;-75
2023/09/21 03:18:17;;;;;;;4.13;2.25;;;;;;;16.14;100.00;99400.25;5023860;28;20037;-76
2023/09/21 03:20:44;;;;;;;4.50;1.90;;;;;;;16.22;100.00;99405.28;5022486;28;20159;-75
2023/09/21 03:23:10;;;;;;;6.65;2.60;;;;;;;16.08;100.00;99380.44;5016160;28;20116;-76
2023/09/21 03:25:40;;;;;;;3.00;1.75;;;;;;;16.21;100.00;99400.97;5022141;28;20053;-75
2023/09/21 03:28:13;;;;;;;3.70;2.17;;;;;;;16.22;100.00;99389.13;5028101;28;20400;-75
2023/09/21 03:30:39;;;;;;;5.30;3.08;;;;;;;16.18;100.00;99366.44;5020838;28;20378;-75
2023/09/21 03:33:05;;;;;;;5.07;2.10;;;;;;;16.14;100.00;99370.63;5011769;28;20486;-76
2023/09/21 03:35:31;;;;;;;9.60;2.03;;;;;;;16.17;100.00;99344.06;5012217;28;20458;-75
2023/09/21 03:37:57;;;;;;;4.82;2.22;;;;;;;16.14;100.00;99344.53;5026916;28;20515;-75
2023/09/21 03:40:25;;;;;;;2.67;1.60;;;;;;;16.15;100.00;99353.41;5027407;28;20487;-75
2023/09/21 03:42:54;;;;;;;7.97;1.85;;;;;;;16.10;100.00;99342.53;5026565;28;20124;-75
2023/09/21 03:45:22;;;;;;;3.72;1.98;;;;;;;16.10;100.00;99342.53;5001693;28;20034;-76
2023/09/21 03:47:48;;;;;;;4.07;2.13;;;;;;;16.16;100.00;99328.97;5019755;28;20252;-75
2023/09/21 03:50:14;;;;;;;3.83;2.35;;;;;;;16.17;100.00;99327.09;5015495;28;20037;-75
2023/09/21 03:52:42;;;;;;;4.22;2.05;;;;;;;16.14;100.00;99301.44;5025426;28;20037;-75
2023/09/21 03:55:17;;;;;;;3.58;1.83;;;;;;;16.17;100.00;99300.97;5015033;28;20076;-75
2023/09/21 03:57:46;;;;;;;3.85;1.98;;;;;;;16.12;100.00;99318.91;5024707;28;20387;-75
2023/09/21 04:00:36;;;;;;;4.55;2.28;;;;;;;16.19;100.00;99319.59;5015016;28;20041;-75
2023/09/21 04:03:10;;;;;;;5.72;1.88;;;;;;;16.09;100.00;99304.03;5019761;28;20499;-75
2023/09/21 04:05:40;;;;;;;3.38;2.35;;;;;;;16.13;100.00;99309.75;5024737;28;20034;-75
2023/09/21 04:08:06;;;;;;;4.68;2.10;;;;;;;16.12;100.00;99310.81;5019807;28;20037;-75
2023/09/21 04:10:32;;;;;;;4.85;1.98;;;;;;;16.17;100.00;99314.44;5025432;28;20542;-75
2023/09/21 04:12:58;;;;;;;4.90;1.90;;;;;;;16.24;100.00;99293.59;5011033;28;20026;-75
2023/09/21 04:15:29;;;;;;;4.57;1.85;;;;;;;16.21;100.00;99255.56;5027090;28;20084;-76
2023/09/21 04:17:56;;;;;;;3.83;2.20;;;;;;;16.16;100.00;99272.41;5023382;28;20459;-75
2023/09/21 04:20:22;;;;;;;4.43;2.50;;;;;;;15.96;100.00;99256.59;5018075;28;20350;-76
2023/09/21 04:22:50;;;;;;;3.47;2.08;;;;;;;16.04;100.00;99290.47;5022238;28;20033;-76
2023/09/21 04:25:16;;;;;;;3.08;1.70;;;;;;;16.10;100.00;99300.28;5025146;28;20116;-76
2023/09/21 04:27:44;;;;;;;5.20;2.33;;;;;;;16.06;100.00;99266.81;5023565;28;20029;-77
2023/09/21 04:30:14;;;;;;;5.10;2.38;;;;;;;16.08;100.00;99285.41;5025830;28;20415;-75
2023/09/21 04:32:47;;;;;;;3.08;2.05;;;;;;;16.12;100.00;99273.94;5017519;28;20040;-74
2023/09/21 04:35:15;;;;;;;2.85;2.20;;;;;;;16.19;100.00;99253.09;5025303;28;20030;-76
2023/09/21 04:37:45;;;;;;;5.85;2.05;;;;;;;16.20;100.00;99238.59;5025417;28;20385;-75
2023/09/21 04:40:11;;;;;;;5.30;2.28;;;;;;;16.24;100.00;99225.47;5025597;28;20056;-75
2023/09/21 04:42:47;;;;;;;3.75;2.00;;;;;;;16.22;100.00;99219.50;5021229;28;20144;-74
2023/09/21 04:45:18;;;;;;;2.70;2.10;;;;;;;16.22;100.00;99206.03;5025140;28;20159;-76
2023/09/21 04:47:47;;;;;;;3.22;1.83;;;;;;;16.19;100.00;99211.91;5024107;28;20033;-75
2023/09/21 04:50:17;;;;;;;4.05;2.10;;;;;;;16.18;100.00;99202.19;5026073;28;20086;-76
2023/09/21 04:52:45;;;;;;;4.00;2.28;;;;;;;16.09;100.00;99209.00;5024371;28;20689;-76
2023/09/21 04:55:15;;;;;;;3.60;2.00;;;;;;;16.11;100.00;99252.63;5023970;28;20040;-76
2023/09/21 04:57:42;;;;;;;5.00;2.35;;;;;;;16.23;100.00;99259.66;5023788;28;20025;-76
2023/09/21 05:00:10;;;;;;;4.15;2.70;;;;;;;16.11;100.00;99213.09;5024146;28;20013;-76
2023/09/21 05:02:36;;;;;;;5.22;2.28;;;;;;;16.07;100.00;99225.38;5024758;28;20040;-76
2023/09/21 05:05:01;;;;;;;3.67;1.80;;;;;;;15.99;100.00;99244.56;5026571;28;20663;-75
2023/09/21 05:07:28;;;;;;;6.38;2.42;;;;;;;16.02;100.00;99244.09;5015418;28;20289;-76
2023/09/21 05:09:54;;;;;;;3.55;1.88;;;;;;;16.16;100.00;99244.69;5010863;28;20078;-76
2023/09/21 05:12:19;;;;;;;5.07;2.30;;;;;;;16.10;100.00;99218.69;5024513;28;20041;-77
2023/09/21 05:14:50;;;;;;;4.78;2.25;;;;;;;16.02;100.00;99234.16;5023395;28;20048;-75
2023/09/21 05:17:16;;;;;;;5.78;2.47;;;;;;;16.09;100.00;99244.81;5017821;28;20042;-75
2023/09/21 05:19:41;;;;;;;4.43;2.25;;;;;;;15.95;100.00;99233.44;5020481;28;20064;-75
2023/09/21 05:22:08;;;;;;;5.37;2.10;;;;;;;16.01;100.00;99240.59;5025804;28;20057;-76
2023/09/21 05:24:33;;;;;;;5.18;2.58;;;;;;;16.13;100.00;99262.13;5026214;28;20040;-76
2023/09/21 05:26:59;;;;;;;4.60;1.80;;;;;;;16.16;100.00;99223.97;5025417;28;20013;-75
2023/09/21 05:29:25;;;;;;;5.23;2.40;;;;;;;16.15;100.00;99222.31;5026396;28;20585;-75
2023/09/21 05:31:50;;;;;;;4.22;2.25;;;;;;;16.21;100.00;99221.38;5026258;28;20041;-76
2023/09/21 05:34:16;;;;;;;3.00;1.90;;;;;;;16.29;100.00;99220.19;5026463;28;20025;-75
2023/09/21 05:36:45;;;;;;;4.72;1.80;;;;;;;16.17;100.00;99198.66;5024530;28;20029;-76
2023/09/21 05:39:11;;;;;;;3.42;2.35;;;;;;;16.25;100.00;99205.56;5019329;28;20510;-76
2023/09/21 05:41:37;;;;;;;6.65;2.20;;;;;;;16.19;100.00;99209.19;5023085;28;20033;-76
2023/09/21 05:44:02;;;;;;;3.90;2.47;;;;;;;16.23;100.00;99215.75;5026427;28;20397;-75
2023/09/21 05:46:28;;;;;;;5.03;2.80;;;;;;;16.24;100.00;99199.34;5053401;22;20507;-72
2023/09/21 05:48:53;;;;;;;5.37;2.00;;;;;;;16.33;100.00;99218.66;5045074;28;20067;-73
2023/09/21 05:51:18;;;;;;;4.17;2.17;;;;;;;16.24;100.00;99198.53;5040588;28;20383;-73
2023/09/21 05:53:45;;;;;;;4.77;2.30;;;;;;;16.45;100.00;99203.28;5042739;28;20484;-74
2023/09/21 05:56:11;;;;;;;;;;;;;;;16.41;100.00;99167.13;5036461;28;20022;-74
2023/09/21 05:58:37;;;;;;;4.57;2.47;;;;;;;16.44;100.00;99172.03;5034655;28;19912;-74
2023/09/21 06:01:02;;;;;;;5.90;2.60;;;;;;;16.42;100.00;99144.50;5029629;28;20037;-74
2023/09/21 06:03:28;;;;;;;5.28;2.28;;;;;;;16.42;100.00;99149.09;5033509;28;20301;-74
2023/09/21 06:05:54;;;;;;;3.08;2.28;;;;;;;16.42;100.00;99152.59;5030648;28;20037;-73
2023/09/21 06:08:20;;;;;;;3.20;2.00;;;;;;;16.45;100.00;99146.72;5037712;28;20465;-74
2023/09/21 06:10:46;;;;;;;3.90;2.10;;;;;;;16.68;100.00;99142.31;5031149;28;20040;-74
2023/09/21 06:13:12;;;;;;;4.55;1.88;;;;;;;17.56;100.00;99088.75;5034560;28;20296;-74
2023/09/21 06:15:45;;;;;;;2.67;1.60;;;;;;;18.35;100.00;98876.88;5034212;28;20108;-74
2023/09/21 06:18:10;;;;;;;3.63;2.17;;;;;;;17.63;100.00;98686.50;5032728;28;20033;-73
2023/09/21 06:20:35;;;;;;;5.50;2.10;;;;;;;17.82;100.00;98770.63;5033763;28;20055;-74
2023/09/21 06:23:02;;;;;;;2.53;2.00;;;;;;;18.60;100.00;98859.22;5022331;28;20025;-74
2023/09/21 06:25:27;;;;;;;4.75;2.35;;;;;;;19.17;100.00;98669.09;5033178;28;20043;-74
2023/09/21 06:27:52;;;;;;;8.63;3.10;;;;;;;18.85;100.00;98450.38;5026539;28;20025;-73
2023/09/21 06:30:20;;;;;;;7.07;2.60;;;;;;;17.96;100.00;98531.53;5026608;28;20088;-74
2023/09/21 06:32:46;;;;;;;4.15;2.20;;;;;;;18.02;100.00;98575.56;5028729;28;20091;-74
2023/09/21 06:35:13;;;;;;;6.17;3.00;;;;;;;17.57;100.00;98629.00;5032603;28;20400;-73
2023/09/21 06:37:39;;;;;;;4.68;1.90;;;;;;;17.87;100.00;98767.97;5033060;28;20103;-73
2023/09/21 06:40:07;;;;;;;3.20;2.07;;;;;;;18.88;100.00;98788.56;5032800;28;20041;-72
2023/09/21 06:42:33;;;;;;;5.57;1.85;;;;;;;18.48;100.00;98560.31;5034330;28;20295;-74
2023/09/21 06:44:58;;;;;;;4.80;2.08;;;;;;;18.20;100.00;98618.31;5031540;28;20065;-74
2023/09/21 06:47:28;;;;;;;5.57;2.17;;;;;;;18.05;100.00;98619.06;5037322;28;20542;-73
2023/09/21 06:49:54;;;;;;;3.72;2.05;;;;;;;18.76;100.00;98710.38;5030798;28;20045;-74
2023/09/21 06:52:21;;;;;;;4.15;2.13;;;;;;;19.27;100.00;98601.50;5036091;28;20024;-72
2023/09/21 06:54:48;;;;;;;3.00;2.00;;;;;;;19.12;100.00;98469.75;5031077;28;20104;-74
2023/09/21 06:57:15;;;;;;;4.45;2.33;;;;;;;19.17;100.00;98468.94;5038292;28;20084;-74
2023/09/21 06:59:43;;;;;;;3.35;2.08;;;;;;;18.55;100.00;98501.41;5038341;28;20029;-72
2023/09/21 07:02:09;;;;;;;3.20;1.90;;;;;;;18.23;100.00;98538.63;5039905;28;20102;-74
2023/09/21 07:04:35;;;;;;;3.88;2.17;;;;;;;18.50;100.00;98606.78;5040765;28;20471;-71
2023/09/21 07:07:05;;;;;;;3.67;2.20;;;;;;;18.46;100.00;98640.00;5035948;28;20021;-74
2023/09/21 07:09:31;;;;;;;5.18;2.20;;;;;;;18.28;100.00;98652.09;5038011;28;20494;-73
2023/09/21 07:11:56;;;;;;;3.50;2.15;;;;;;;18.18;100.00;98669.06;5038042;28;20531;-74
2023/09/21 07:14:22;;;;;;;4.77;2.17;;;;;;;18.41;100.00;98696.72;5042049;28;20025;-73
2023/09/21 07:16:48;;;;;;;3.07;2.03;;;;;;;18.46;100.00;98685.94;5035776;28;20123;-73
2023/09/21 07:19:14;;;;;;;;;;;;;;;18.50;100.00;98616.78;5039845;28;20029;-73
2023/09/21 07:21:40;;;;;;;3.78;1.92;;;;;;;18.43;100.00;98625.13;5036051;28;19913;-72
2023/09/21 07:24:07;;;;;;;5.25;2.05;;;;;;;18.28;100.00;98684.50;5031226;28;20049;-74
2023/09/21 07:26:34;;;;;;;3.75;2.28;;;;;;;18.48;100.00;98740.53;5040590;28;20033;-73
2023/09/21 07:29:04;;;;;;;4.97;2.17;;;;;;;18.73;100.00;98785.75;5033696;28;20033;-73
2023/09/21 07:31:32;;;;;;;5.32;2.08;;;;;;;19.33;100.00;98629.34;5040863;28;20090;-74
2023/09/21 07:33:59;;;;;;;3.47;2.25;;;;;;;19.38;100.00;98429.91;5034392;28;20037;-74
2023/09/21 07:36:24;;;;;;;5.22;2.65;;;;;;;19.67;100.00;98431.97;5040851;28;20021;-74
2023/09/21 07:38:52;;;;;;;6.10;2.47;;;;;;;19.49;100.00;98443.44;5035192;28;20037;-73
2023/09/21 07:41:17;;;;;;;3.65;2.30;;;;;;;20.28;100.00;98471.47;5037952;28;20043;-72
2023/09/21 07:43:43;;;;;;;4.20;2.00;;;;;;;20.76;100.00;98289.97;5037832;28;20033;-71
2023/09/21 07:46:08;;;;;;;5.13;2.00;;;;;;;20.79;100.00;98088.78;5036591;28;20036;-73
2023/09/21 07:48:33;;;;;;;6.67;2.50;;;;;;;20.78;100.00;97962.44;5040102;28;20040;-74
2023/09/21 07:51:04;;;;;;;2.13;1.67;;;;;;;21.63;100.00;98038.28;5037651;28;20033;-72
2023/09/21 07:53:29;;;;;;;3.17;1.92;;;;;;;21.91;98.81;97819.91;5040731;28;20033;-72
2023/09/21 07:56:04;;;;;;;5.40;2.33;;;;;;;22.19;95.57;97749.13;5036740;28;20512;-72
2023/09/21 07:58:29;;;;;;;3.47;2.08;;;;;;;22.55;95.63;97903.19;5034645;28;20033;-72
2023/09/21 08:00:55;;;;;;;2.97;1.73;;;;;;;22.85;91.16;97683.19;5035576;28;20365;-72
2023/09/21 08:03:25;;;;;;;3.15;2.10;;;;;;;22.90;88.48;97492.66;5032592;28;20441;-72
2023/09/21 08:05:51;;;;;;;3.05;2.30;;;;;;;23.18;87.77;97594.59;5034126;28;20396;-71
2023/09/21 08:08:16;;;;;;;;;;;;;;;23.80;84.72;97544.31;5039098;28;20025;-71
2023/09/21 08:10:42;;;;;;;3.40;1.83;;;;;;;23.56;84.90;97566.66;5038561;28;19919;-72
2023/09/21 08:13:08;;;;;;;2.10;1.70;;;;;;;23.83;81.18;97330.41;5038320;28;20037;-72
2023/09/21 08:15:33;;;;;;;2.97;1.70;;;;;;;24.21;79.53;97352.06;5039592;28;20103;-72
2023/09/21 08:18:00;;;;;;;2.93;2.00;;;;;;;24.44;78.13;97349.75;5036974;28;20026;-72
2023/09/21 08:20:26;;;;;;;4.40;1.73;;;;;;;24.28;78.42;97362.41;5038300;28;20283;-71
2023/09/21 08:22:52;;;;;;;4.95;2.17;;;;;;;24.70;76.78;97395.09;5032923;28;20397;-71
2023/09/21 08:25:17;;;;;;;5.00;2.10;;;;;;;24.09;75.92;97193.97;5037666;28;20029;-72
2023/09/21 08:27:43;;;;;;;3.47;2.03;;;;;;;24.66;73.55;97091.44;5035769;28;20064;-70
2023/09/21 08:30:09;;;;;;;6.68;2.78;;;;;;;24.52;73.15;97091.78;5038268;28;20032;-72
2023/09/21 08:32:34;;;;;;;4.95;1.90;;;;;;;24.58;72.54;97136.78;5035419;28;20116;-72
2023/09/21 08:35:00;;;;;;;2.33;1.90;;;;;;;24.58;72.54;97157.78;5032974;28;20354;-72
2023/09/21 08:37:26;;;;;;;2.35;1.92;;;;;;;24.93;70.95;97062.59;5039605;28;20043;-72
2023/09/21 08:39:51;;;;;;;2.28;1.73;;;;;;;25.00;71.05;97152.06;5036620;28;20041;-71
2023/09/21 08:42:16;;;;;;;1.77;1.60;;;;;;;24.60;71.25;97106.44;5035728;28;20041;-70
2023/09/21 08:44:43;;;;;;;2.90;2.00;;;;;;;25.17;71.29;97374.78;5037946;28;20031;-72
2023/09/21 08:47:13;;;;;;;4.25;1.83;;;;;;;24.46;70.30;96953.31;5032683;28;20038;-71
2023/09/21 08:49:46;;;;;;;2.80;2.08;;;;;;;24.26;70.63;97029.44;5038287;28;20043;-71
2023/09/21 08:52:13;;;;;;;5.60;2.33;;;;;;;24.91;70.01;97162.28;5034283;28;20448;-70
2023/09/21 08:54:42;;;;;;;3.33;2.28;;;;;;;24.92;69.28;97107.41;5038016;28;20040;-71
2023/09/21 08:57:13;;;;;;;3.95;1.77;;;;;;;25.11;67.41;96928.59;5037195;28;20120;-72
2023/09/21 08:59:42;;;;;;;4.85;1.90;;;;;;;24.95;68.92;97168.66;5038104;28;20525;-71
2023/09/21 09:02:12;;;;;;;3.30;1.95;;;;;;;24.79;68.00;96996.72;5035870;28;20017;-71
2023/09/21 09:04:44;;;;;;;3.33;1.70;;;;;;;24.95;67.44;97029.53;5036093;28;20056;-72
2023/09/21 09:07:11;;;;;;;4.35;1.90;;;;;;;24.93;67.53;97020.88;5030843;28;20032;-72
2023/09/21 09:09:39;;;;;;;4.57;1.88;;;;;;;24.42;66.84;96774.09;5036898;28;20040;-70
2023/09/21 09:12:19;;;;;;;3.78;2.28;;;;;;;24.60;67.88;97025.41;5036819;28;20040;-72
2023/09/21 09:14:45;;;;;;;3.17;2.10;;;;;;;25.39;67.31;97310.78;5036630;28;20041;-71
2023/09/21 09:17:17;;;;;;;8.00;3.03;;;;;;;25.11;66.47;96978.50;5035621;28;20017;-72
2023/09/21 09:19:43;;;;;;;3.38;1.60;;;;;;;25.85;65.97;97213.81;5034963;28;20116;-72
2023/09/21 09:22:13;;;;;;;2.92;1.80;;;;;;;25.52;65.11;96935.53;5034518;28;20384;-71
2023/09/21 09:24:38;;;;;;;6.55;1.73;;;;;;;25.72;64.86;97056.56;5035757;28;20079;-72
2023/09/21 09:27:04;;;;;;;3.73;1.77;;;;;;;25.84;66.16;97283.22;5032722;28;20123;-72
2023/09/21 09:29:29;;;;;;;2.55;2.22;;;;;;;25.57;64.65;96957.09;5037367;28;20040;-71
2023/09/21 09:31:54;;;;;;;4.07;2.00;;;;;;;25.51;65.24;97066.94;5033448;28;20037;-71
2023/09/21 09:34:21;;;;;;;6.13;1.90;;;;;;;26.15;65.72;97415.72;5038485;28;20796;-71
2023/09/21 09:36:51;;;;;;;3.25;2.15;;;;;;;26.23;63.34;96996.50;5034657;28;20372;-70
2023/09/21 09:39:19;;;;;;;4.85;2.03;;;;;;;25.38;64.16;96823.22;5038087;28;20056;-71
2023/09/21 09:41:46;;;;;;;3.95;1.83;;;;;;;25.73;63.29;96877.88;5036487;28;20103;-72
2023/09/21 09:44:17;;;;;;;2.97;1.90;;;;;;;26.10;62.40;96952.09;5036080;28;20080;-72
2023/09/21 09:46:46;;;;;;;9.60;3.03;;;;;;;26.50;61.97;97004.88;5036019;28;20037;-72
2023/09/21 09:49:13;;;;;;;3.95;2.28;;;;;;;26.21;61.74;96818.38;5034249;28;20038;-71
2023/09/21 09:51:44;;;;;;;2.85;1.85;;;;;;;25.77;62.00;96730.44;5035829;28;20518;-72
2023/09/21 09:54:11;;;;;;;4.07;2.00;;;;;;;25.05;62.41;96606.91;5032553;28;20400;-72
2023/09/21 09:56:44;;;;;;;4.25;2.17;;;;;;;25.73;62.59;96978.13;5037044;28;20120;-70
2023/09/21 09:59:11;;;;;;;3.85;2.00;;;;;;;26.32;61.68;97008.03;5032467;28;20045;-71
2023/09/21 10:01:39;;;;;;;4.38;2.47;;;;;;;26.20;61.04;96868.75;5036025;28;20025;-71
2023/09/21 10:04:07;;;;;;;2.92;1.67;;;;;;;26.81;61.10;97075.16;5034368;28;20072;-72
2023/09/21 10:06:36;;;;;;;2.85;1.70;;;;;;;26.55;60.29;96839.75;5037485;28;20064;-71
2023/09/21 10:09:10;;;;;;;3.75;2.08;;;;;;;26.94;59.74;96879.53;5032682;28;20053;-70
2023/09/21 10:11:42;;;;;;;7.70;1.98;;;;;;;27.20;59.47;96956.66;5037192;28;20052;-71
2023/09/21 10:14:11;;;;;;;3.75;1.95;;;;;;;28.16;57.86;97114.50;5034521;28;20109;-72
2023/09/21 10:16:41;;;;;;;2.38;1.60;;;;;;;27.46;57.48;96740.34;5035666;28;20144;-71
2023/09/21 10:19:22;;;;;;;5.30;1.85;;;;;;;27.41;58.06;96775.50;5032553;28;20068;-72
2023/09/21 10:21:49;;;;;;;3.33;1.75;;;;;;;26.75;58.17;96600.56;5035740;28;20056;-72
2023/09/21 10:24:18;;;;;;;6.40;2.20;;;;;;;26.89;58.89;96814.19;5035479;28;20091;-72
2023/09/21 10:26:51;;;;;;;2.80;1.90;;;;;;;26.73;59.24;96849.06;5032794;28;20065;-71
2023/09/21 10:29:21;;;;;;;7.15;2.33;;;;;;;27.38;58.69;97003.53;5037205;28;20128;-71
2023/09/21 10:31:54;;;;;;;4.07;1.90;;;;;;;28.19;56.97;96964.94;5032009;28;20037;-71
2023/09/21 10:34:21;;;;;;;3.22;1.92;;;;;;;27.35;56.04;96534.84;5037838;28;20033;-72
2023/09/21 10:37:06;;;;;;;8.00;1.70;;;;;;;27.77;56.68;96783.06;5032384;28;20513;-71
2023/09/21 10:39:32;;;;;;;2.95;1.92;;;;;;;28.30;54.85;96634.03;5032033;28;20041;-72
2023/09/21 10:42:03;;;;;;;;;;;;;;;27.94;54.67;96452.03;5033468;28;20075;-72
2023/09/21 10:45:03;;;;;;;3.45;1.90;;;;;;;27.81;54.86;96424.13;5035187;28;19975;-72
2023/09/21 10:47:29;;;;;;;2.63;1.70;;;;;;;27.09;55.72;96387.09;5030900;28;20056;-71
2023/09/21 10:50:10;;;;;;;;;;;;;;;28.01;55.30;96676.84;5033510;28;20073;-73
2023/09/21 10:52:40;;;;;;;3.08;1.73;;;;;;;27.11;56.12;96456.75;5032787;28;20028;-72
2023/09/21 10:55:07;;;;;;;5.20;2.30;;;;;;;28.31;55.17;96791.94;5033892;28;20037;-72
2023/09/21 10:57:32;;;;;;;7.32;2.03;;;;;;;28.25;53.70;96507.47;5036918;28;20059;-72
2023/09/21 10:59:59;;;;;;;2.08;1.60;;;;;;;29.07;53.50;96867.59;5034400;28;20190;-72
2023/09/21 11:02:29;;;;;;;3.55;1.92;;;;;;;28.36;52.85;96456.22;5037575;28;20033;-72
2023/09/21 11:04:55;;;;;;;2.67;1.65;;;;;;;29.07;52.51;96617.75;5031414;28;20396;-73
2023/09/21 11:07:21;;;;;;;2.08;1.80;;;;;;;28.05;51.88;96104.81;5030115;28;20181;-73
2023/09/21 11:09:47;;;;;;;;;;;;;;;28.39;52.32;96395.09;5034264;28;20044;-71
2023/09/21 11:12:14;;;;;;;4.03;1.80;;;;;;;27.87;51.89;96098.50;5036686;28;19920;-72
2023/09/21 11:14:45;;;;;;;;;;;;;;;29.05;51.04;96530.22;5036193;28;20032;-72
2023/09/21 11:17:11;;;;;;;3.60;1.60;;;;;;;28.68;50.29;96131.84;5035396;28;19913;-71
2023/09/21 11:19:41;;;;;;;5.78;2.55;;;;;;;27.95;51.73;96113.78;5035205;28;20031;-72
2023/09/21 11:22:07;;;;;;;4.07;1.77;;;;;;;27.52;52.44;96036.97;5035265;28;20088;-72
2023/09/21 11:24:36;;;;;;;4.03;1.70;;;;;;;26.74;52.80;95783.84;5035689;28;20036;-71
2023/09/21 11:27:03;;;;;;;5.95;1.83;;;;;;;27.09;52.88;96067.72;5016486;28;20044;-72
2023/09/21 11:29:29;;;;;;;5.13;1.85;;;;;;;27.00;54.05;96266.25;5037583;28;20033;-72
2023/09/21 11:31:54;;;;;;;;;;;;;;;27.07;53.77;96264.34;5034090;28;20034;-72
2023/09/21 11:34:20;;;;;;;6.05;2.28;;;;;;;28.72;52.19;96731.59;5037398;28;20429;-72